Time;durP1;ratioP1;P1;durP2;ratioP2;P2;SDS_P1;SDS_P2;PMS_P1;PMS_P2;Temp;Humidity;BMP_temperature;BMP_pressure;BME280_temperature;BME280_humidity;BME280_pressure;Samples;Min_cycle;Max_cycle;Signal;HPM_P1;HPM_P2
2022/08/27 00:00:44;;;;;;;15.18;8.77;;;19.30;99.90;;;;;;5085480;28;20058;-70
2022/08/27 00:03:11;;;;;;;10.50;9.23;;;19.30;99.90;;;;;;5086234;28;20275;-71
2022/08/27 00:05:39;;;;;;;13.23;9.93;;;19.30;99.90;;;;;;5086070;28;20052;-72
2022/08/27 00:08:08;;;;;;;12.13;9.60;;;19.40;99.90;;;;;;5083261;28;20055;-70
2022/08/27 00:10:35;;;;;;;12.23;9.32;;;19.40;99.90;;;;;;5083585;28;20050;-70
2022/08/27 00:13:02;;;;;;;12.57;9.63;;;19.30;99.90;;;;;;5086954;27;20032;-69
2022/08/27 00:15:30;;;;;;;12.57;9.40;;;19.30;99.90;;;;;;5079736;28;20435;-70
2022/08/27 00:17:57;;;;;;;12.25;9.60;;;19.30;99.90;;;;;;5085834;28;20059;-69
2022/08/27 00:20:26;;;;;;;13.32;10.35;;;19.30;99.90;;;;;;5083716;28;20058;-70
2022/08/27 00:22:53;;;;;;;12.45;9.65;;;19.30;99.90;;;;;;5085467;28;20058;-69
2022/08/27 00:25:21;;;;;;;9.25;8.30;;;19.30;99.90;;;;;;5085704;28;20043;-68
2022/08/27 00:27:48;;;;;;;16.05;9.57;;;19.30;99.90;;;;;;5085764;28;20046;-70
2022/08/27 00:30:17;;;;;;;11.52;9.25;;;19.30;99.90;;;;;;5080095;28;20058;-70
2022/08/27 00:32:44;;;;;;;9.77;8.73;;;19.30;99.90;;;;;;5085556;28;20039;-69
2022/08/27 00:35:14;;;;;;;10.13;8.95;;;19.30;99.90;;;;;;5085465;28;20465;-74
2022/08/27 00:37:42;;;;;;;11.02;8.70;;;19.30;99.90;;;;;;5085269;28;20163;-74
2022/08/27 00:40:13;;;;;;;16.55;9.85;;;19.30;99.90;;;;;;5083635;28;20071;-71
2022/08/27 00:42:41;;;;;;;12.98;8.95;;;19.20;99.90;;;;;;5085261;28;20040;-70
2022/08/27 00:45:08;;;;;;;11.93;9.30;;;19.30;99.90;;;;;;5085265;28;20044;-71
2022/08/27 00:47:41;;;;;;;18.80;11.80;;;19.20;99.90;;;;;;5083005;28;20044;-73
2022/08/27 00:50:14;;;;;;;18.70;9.63;;;19.30;99.90;;;;;;5083423;28;20048;-71
2022/08/27 00:52:53;;;;;;;11.63;9.57;;;19.30;99.90;;;;;;5084374;28;20153;-71
2022/08/27 00:55:26;;;;;;;9.45;8.52;;;19.20;99.90;;;;;;5084746;28;20044;-70
2022/08/27 00:58:11;;;;;;;15.73;10.60;;;19.20;99.90;;;;;;5084320;28;20036;-72
2022/08/27 01:00:38;;;;;;;12.82;8.48;;;19.20;99.90;;;;;;5085372;27;20040;-73
2022/08/27 01:03:05;;;;;;;12.52;9.35;;;19.20;99.90;;;;;;5081022;28;20047;-70
2022/08/27 01:05:35;;;;;;;13.60;10.35;;;19.20;99.90;;;;;;5084948;28;20052;-70
2022/08/27 01:08:08;;;;;;;19.38;9.25;;;19.20;99.90;;;;;;5082386;28;20050;-73
2022/08/27 01:10:37;;;;;;;13.02;9.43;;;19.10;99.90;;;;;;5083335;28;20422;-73
2022/08/27 01:13:07;;;;;;;13.27;9.85;;;19.20;99.90;;;;;;5084331;28;20051;-75
2022/08/27 01:15:34;;;;;;;11.60;8.65;;;19.20;99.90;;;;;;5081109;28;20143;-71
2022/08/27 01:18:06;;;;;;;13.07;9.88;;;19.10;99.90;;;;;;5079971;28;20491;-72
2022/08/27 01:20:49;;;;;;;17.05;10.18;;;19.10;99.90;;;;;;5083705;28;20362;-72
2022/08/27 01:23:26;;;;;;;20.15;9.88;;;19.10;99.90;;;;;;5084479;28;20112;-70
2022/08/27 01:25:53;;;;;;;11.85;8.43;;;19.10;99.90;;;;;;5083880;28;20044;-70
2022/08/27 01:28:21;;;;;;;15.00;9.77;;;19.10;99.90;;;;;;5082437;28;20051;-70
2022/08/27 01:30:57;;;;;;;11.32;8.98;;;19.10;99.90;;;;;;5075919;28;20069;-72
2022/08/27 01:33:24;;;;;;;13.85;10.57;;;19.10;99.90;;;;;;5084316;28;20300;-72
2022/08/27 01:35:51;;;;;;;20.05;9.57;;;19.10;99.90;;;;;;5080817;28;20040;-70
2022/08/27 01:38:20;;;;;;;17.70;9.20;;;19.00;99.90;;;;;;5082260;28;20055;-70
2022/08/27 01:40:58;;;;;;;11.30;9.80;;;19.00;99.90;;;;;;5083842;28;20158;-72
2022/08/27 01:43:28;;;;;;;16.90;9.55;;;19.00;99.90;;;;;;5084107;28;20074;-70
2022/08/27 01:45:55;;;;;;;12.50;10.65;;;19.00;99.90;;;;;;5082848;28;20032;-71
2022/08/27 01:48:22;;;;;;;14.65;9.45;;;19.00;99.90;;;;;;5080120;28;20043;-70
2022/08/27 01:50:49;;;;;;;11.40;10.32;;;19.00;99.90;;;;;;5078417;28;20040;-71
2022/08/27 01:53:23;;;;;;;15.80;10.98;;;19.00;99.90;;;;;;5083170;28;20043;-70
2022/08/27 01:55:51;;;;;;;27.35;10.60;;;19.00;99.90;;;;;;5083785;28;20069;-71
2022/08/27 01:58:21;;;;;;;16.23;10.57;;;19.00;99.90;;;;;;5081355;28;20047;-75
2022/08/27 02:00:52;;;;;;;10.70;9.50;;;19.00;99.90;;;;;;5083538;28;20115;-71
2022/08/27 02:03:22;;;;;;;13.70;9.77;;;19.00;99.90;;;;;;5083525;28;20048;-69
2022/08/27 02:05:50;;;;;;;21.27;11.95;;;19.00;99.90;;;;;;5080008;28;20036;-70
2022/08/27 02:08:18;;;;;;;15.05;11.63;;;18.90;99.90;;;;;;5077814;28;20048;-70
2022/08/27 02:10:47;;;;;;;10.57;9.48;;;18.90;99.90;;;;;;5083528;28;20040;-69
2022/08/27 02:13:15;;;;;;;13.48;10.35;;;18.90;99.90;;;;;;5083146;28;20091;-72
2022/08/27 02:15:43;;;;;;;13.80;9.82;;;18.90;99.90;;;;;;5083516;28;20085;-70
2022/08/27 02:18:11;;;;;;;12.35;10.38;;;18.90;99.90;;;;;;5080979;28;20048;-70
2022/08/27 02:20:38;;;;;;;14.48;10.57;;;18.80;99.90;;;;;;5083260;28;20040;-69
2022/08/27 02:23:06;;;;;;;11.07;9.48;;;18.80;99.90;;;;;;5080170;28;20044;-74
2022/08/27 02:25:33;;;;;;;13.02;10.95;;;18.80;99.90;;;;;;5083380;28;20036;-71
2022/08/27 02:28:00;;;;;;;10.95;9.88;;;18.80;99.90;;;;;;5085165;28;20036;-69
2022/08/27 02:30:30;;;;;;;14.85;10.15;;;18.80;99.90;;;;;;5083977;28;20060;-70
2022/08/27 02:32:59;;;;;;;17.17;11.57;;;18.80;99.90;;;;;;5086879;28;20130;-75
2022/08/27 02:35:28;;;;;;;14.23;10.23;;;18.80;99.90;;;;;;5086583;28;20040;-72
2022/08/27 02:37:56;;;;;;;16.70;10.77;;;18.80;99.90;;;;;;5084382;27;20055;-69
2022/08/27 02:40:24;;;;;;;16.77;10.88;;;18.80;99.90;;;;;;5085588;28;20454;-71
2022/08/27 02:42:51;;;;;;;15.32;11.88;;;18.80;99.90;;;;;;5086746;28;20036;-69
2022/08/27 02:45:19;;;;;;;11.32;9.98;;;18.70;99.90;;;;;;5086328;28;20050;-74
2022/08/27 02:47:47;;;;;;;16.30;10.73;;;18.70;99.90;;;;;;5085149;28;20036;-69
2022/08/27 02:50:14;;;;;;;11.05;10.07;;;18.70;99.90;;;;;;5084991;28;20985;-71
2022/08/27 02:52:44;;;;;;;13.10;9.70;;;18.70;99.90;;;;;;5087092;28;20059;-72
2022/08/27 02:55:13;;;;;;;18.17;10.57;;;18.70;99.90;;;;;;5083985;28;20051;-70
2022/08/27 02:57:43;;;;;;;12.63;11.18;;;18.70;99.90;;;;;;5087564;28;20039;-71
2022/08/27 03:00:14;;;;;;;11.05;9.73;;;18.70;99.90;;;;;;5085133;28;20039;-71
2022/08/27 03:02:41;;;;;;;11.32;10.10;;;18.70;99.90;;;;;;5083760;28;20040;-71
2022/08/27 03:05:10;;;;;;;13.45;9.95;;;18.70;99.90;;;;;;5086002;28;20044;-72
2022/08/27 03:07:39;;;;;;;12.10;10.98;;;18.70;99.90;;;;;;5087179;28;20048;-71
2022/08/27 03:10:07;;;;;;;13.18;10.30;;;18.70;99.90;;;;;;5081993;28;20389;-69
2022/08/27 03:12:35;;;;;;;11.27;10.18;;;18.70;99.90;;;;;;5087736;28;20123;-69
2022/08/27 03:15:08;;;;;;;11.15;9.10;;;18.70;99.90;;;;;;5086666;28;20070;-71
2022/08/27 03:20:22;;;;;;;14.32;10.73;;;18.70;99.90;;;;;;5084311;28;20115;-69
2022/08/27 03:22:49;;;;;;;13.13;11.07;;;18.70;99.90;;;;;;5087389;28;20044;-71
2022/08/27 03:25:16;;;;;;;11.70;10.60;;;18.60;99.90;;;;;;5083844;28;21435;-69
2022/08/27 03:27:43;;;;;;;11.30;10.30;;;18.60;99.90;;;;;;5087152;28;20350;-70
2022/08/27 03:30:14;;;;;;;12.23;10.95;;;18.60;99.90;;;;;;5084875;28;20048;-73
2022/08/27 03:32:42;;;;;;;11.98;9.52;;;18.60;99.90;;;;;;5087222;28;20055;-69
2022/08/27 03:35:10;;;;;;;11.10;9.90;;;18.60;99.90;;;;;;5085770;28;20044;-71
2022/08/27 03:37:37;;;;;;;12.63;9.30;;;18.60;99.90;;;;;;5085832;28;20044;-70
2022/08/27 03:40:06;;;;;;;11.38;10.20;;;18.50;99.90;;;;;;5085273;28;20059;-74
2022/08/27 03:42:34;;;;;;;12.73;10.18;;;18.50;99.90;;;;;;5082620;28;20040;-69
2022/08/27 03:45:02;;;;;;;11.75;10.75;;;18.50;99.90;;;;;;5087047;28;20036;-72
2022/08/27 03:47:31;;;;;;;12.95;9.15;;;18.50;99.90;;;;;;5086711;28;20105;-71
2022/08/27 03:50:01;;;;;;;11.82;9.60;;;18.50;99.90;;;;;;5086096;28;20040;-70
2022/08/27 03:52:28;;;;;;;;;;;18.50;99.90;;;;;;5085406;28;20032;-70
2022/08/27 03:54:57;;;;;;;12.60;9.73;;;18.50;99.90;;;;;;5086639;28;20245;-76
2022/08/27 03:57:24;;;;;;;15.07;9.85;;;18.50;99.90;;;;;;5083380;28;20029;-69
2022/08/27 03:59:51;;;;;;;13.05;10.88;;;18.60;99.90;;;;;;5085520;28;20762;-73
2022/08/27 04:02:20;;;;;;;13.18;11.27;;;18.60;99.90;;;;;;5083489;28;20090;-73
2022/08/27 04:04:47;;;;;;;15.18;11.15;;;18.70;99.90;;;;;;5086447;28;20131;-70
2022/08/27 04:07:15;;;;;;;16.30;11.40;;;18.70;99.90;;;;;;5080201;28;20131;-71
2022/08/27 04:09:42;;;;;;;13.40;11.88;;;18.80;99.90;;;;;;5086881;28;20357;-75
2022/08/27 04:12:10;;;;;;;13.93;10.27;;;18.80;99.90;;;;;;5078162;28;20051;-69
2022/08/27 04:14:37;;;;;;;12.95;10.80;;;18.90;99.90;;;;;;5062644;28;20559;-71
2022/08/27 04:17:05;;;;;;;19.52;11.13;;;18.90;99.90;;;;;;5084299;28;20353;-73
2022/08/27 04:19:33;;;;;;;14.57;10.20;;;19.00;99.90;;;;;;5086084;28;20493;-71
2022/08/27 04:22:05;;;;;;;14.27;10.50;;;19.00;99.90;;;;;;5083033;28;20123;-71
2022/08/27 04:24:35;;;;;;;12.60;10.77;;;19.00;99.90;;;;;;5085614;28;20046;-70
2022/08/27 04:27:03;;;;;;;13.88;10.95;;;19.10;99.90;;;;;;5085150;28;20052;-71
2022/08/27 04:29:30;;;;;;;20.38;13.70;;;19.10;99.90;;;;;;5083175;28;20036;-70
2022/08/27 04:31:58;;;;;;;13.98;11.02;;;19.10;99.90;;;;;;5081954;28;20373;-69
2022/08/27 04:34:25;;;;;;;22.70;12.07;;;19.10;99.90;;;;;;5084085;28;20063;-70
2022/08/27 04:36:55;;;;;;;14.63;10.77;;;19.20;99.90;;;;;;5084166;28;20121;-72
2022/08/27 04:39:24;;;;;;;14.18;11.52;;;19.30;99.90;;;;;;5081881;28;20699;-69
2022/08/27 04:41:54;;;;;;;14.00;11.30;;;19.30;99.90;;;;;;5085377;28;20028;-69
2022/08/27 04:44:21;;;;;;;16.10;11.32;;;19.30;99.90;;;;;;5064278;28;20359;-71
2022/08/27 04:46:53;;;;;;;12.65;11.35;;;19.40;99.90;;;;;;5081479;28;20050;-73
2022/08/27 04:49:20;;;;;;;15.98;11.88;;;19.40;99.90;;;;;;5084706;28;20085;-70
2022/08/27 04:51:47;;;;;;;20.08;12.63;;;19.40;99.90;;;;;;5084301;28;20400;-68
2022/08/27 04:54:14;;;;;;;21.63;12.20;;;19.50;99.90;;;;;;5083738;28;20036;-68
2022/08/27 04:56:42;;;;;;;16.27;12.35;;;19.60;99.90;;;;;;5081733;28;20136;-70
2022/08/27 04:59:10;;;;;;;21.65;12.25;;;19.60;99.90;;;;;;5088775;28;20492;-71
2022/08/27 05:01:39;;;;;;;15.77;11.77;;;19.70;99.90;;;;;;5081949;28;20043;-75
2022/08/27 05:04:06;;;;;;;16.17;12.07;;;19.70;99.90;;;;;;5083968;28;20040;-70
2022/08/27 05:06:35;;;;;;;18.73;11.07;;;19.80;99.90;;;;;;5076699;28;20044;-72
2022/08/27 05:09:04;;;;;;;17.50;10.50;;;19.90;99.90;;;;;;5077313;28;20040;-69
2022/08/27 05:11:33;;;;;;;12.68;10.52;;;19.90;99.90;;;;;;5084109;28;20062;-69
2022/08/27 05:14:02;;;;;;;12.77;10.35;;;20.10;99.90;;;;;;5083251;28;20185;-70
2022/08/27 05:16:30;;;;;;;17.92;12.35;;;20.10;99.90;;;;;;5080064;28;20101;-72
2022/08/27 05:18:58;;;;;;;14.18;10.43;;;20.20;99.90;;;;;;5080898;28;20315;-70
2022/08/27 05:21:30;;;;;;;11.98;10.80;;;20.30;99.90;;;;;;5084427;28;20043;-69
2022/08/27 05:23:59;;;;;;;15.25;11.13;;;20.30;99.90;;;;;;5084656;28;20040;-69
2022/08/27 05:26:27;;;;;;;15.90;10.38;;;20.30;99.90;;;;;;5082512;28;20044;-70
2022/08/27 05:28:57;;;;;;;13.50;10.00;;;20.40;99.90;;;;;;5065355;28;20067;-71
2022/08/27 05:31:24;;;;;;;30.13;13.00;;;20.50;99.90;;;;;;5083987;28;20128;-69
2022/08/27 05:33:54;;;;;;;12.25;9.63;;;20.50;99.90;;;;;;5081900;28;20059;-69
2022/08/27 05:36:32;;;;;;;16.42;10.70;;;20.60;99.90;;;;;;5079709;28;20093;-70
2022/08/27 05:39:03;;;;;;;13.80;11.35;;;20.60;99.90;;;;;;5084856;28;20117;-69
2022/08/27 05:41:32;;;;;;;14.43;10.30;;;20.60;99.90;;;;;;5083822;28;20076;-70
2022/08/27 05:44:08;;;;;;;13.27;9.63;;;20.70;99.90;;;;;;5083914;27;20040;-70
2022/08/27 05:46:55;;;;;;;15.77;9.43;;;20.80;99.90;;;;;;5084456;28;20040;-72
2022/08/27 05:49:22;;;;;;;12.10;10.25;;;20.80;99.90;;;;;;5081309;28;20040;-73
2022/08/27 05:51:49;;;;;;;13.88;9.57;;;20.80;99.90;;;;;;5083509;28;20557;-71
2022/08/27 05:54:19;;;;;;;21.20;9.65;;;20.90;99.90;;;;;;5082597;28;20067;-72
2022/08/27 05:56:48;;;;;;;11.88;9.93;;;21.00;99.90;;;;;;5081320;28;20044;-69
2022/08/27 06:02:04;;;;;;;11.68;10.45;;;21.10;99.90;;;;;;5075361;28;20081;-70
2022/08/27 06:04:32;;;;;;;15.38;9.05;;;21.10;99.90;;;;;;5083570;28;20043;-75
2022/08/27 06:06:59;;;;;;;14.77;9.27;;;21.20;99.90;;;;;;5082250;28;20089;-70
2022/08/27 06:09:30;;;;;;;13.18;8.18;;;21.20;99.90;;;;;;5084468;28;20044;-72
2022/08/27 06:11:58;;;;;;;9.82;8.50;;;21.30;99.90;;;;;;5084751;28;20062;-73
2022/08/27 06:14:26;;;;;;;10.75;8.55;;;21.40;99.90;;;;;;5083112;28;20139;-72
2022/08/27 06:16:53;;;;;;;10.90;7.93;;;21.50;99.90;;;;;;5079627;28;20032;-72
2022/08/27 06:19:21;;;;;;;11.30;8.00;;;21.50;99.90;;;;;;5092305;28;20043;-69
2022/08/27 06:21:48;;;;;;;10.98;8.20;;;21.60;99.90;;;;;;5084163;28;20055;-72
2022/08/27 06:24:35;;;;;;;11.43;8.05;;;21.70;99.90;;;;;;5082820;28;20046;-72
2022/08/27 06:27:02;;;;;;;9.30;7.90;;;21.80;99.90;;;;;;5083184;28;20466;-70
2022/08/27 06:29:29;;;;;;;9.57;7.50;;;21.90;99.90;;;;;;5084166;28;20765;-72
2022/08/27 06:31:56;;;;;;;16.98;9.93;;;21.90;99.90;;;;;;5063862;28;20489;-68
2022/08/27 06:34:23;;;;;;;8.93;8.10;;;22.00;99.90;;;;;;5082050;28;20040;-70
2022/08/27 06:36:52;;;;;;;9.35;7.00;;;22.10;99.90;;;;;;5079993;28;20048;-77
2022/08/27 06:39:19;;;;;;;11.30;7.57;;;22.10;99.90;;;;;;5083986;28;20040;-71
2022/08/27 06:41:49;;;;;;;12.07;7.93;;;22.20;99.90;;;;;;5082001;28;20044;-71
2022/08/27 06:44:20;;;;;;;11.50;7.93;;;22.30;99.90;;;;;;5064514;28;20048;-70
2022/08/27 06:46:47;;;;;;;8.05;7.25;;;22.30;99.90;;;;;;5084569;28;20055;-69
2022/08/27 06:49:15;;;;;;;10.68;6.55;;;22.40;99.90;;;;;;5080775;28;20564;-69
2022/08/27 06:51:46;;;;;;;7.50;6.70;;;22.40;99.90;;;;;;5083062;28;20138;-71
2022/08/27 06:54:14;;;;;;;7.55;6.85;;;22.50;99.90;;;;;;5079487;28;20082;-70
2022/08/27 06:56:43;;;;;;;11.43;7.82;;;22.60;99.90;;;;;;5084539;28;20039;-70
2022/08/27 06:59:14;;;;;;;10.90;6.40;;;22.70;99.90;;;;;;5083976;28;20054;-70
2022/08/27 07:01:46;;;;;;;9.80;6.43;;;22.70;99.90;;;;;;5078767;28;20040;-72
2022/08/27 07:04:18;;;;;;;8.55;6.65;;;22.80;99.90;;;;;;5082252;28;20048;-72
2022/08/27 07:06:45;;;;;;;7.20;6.30;;;22.80;99.90;;;;;;5081664;28;20204;-71
2022/08/27 07:09:13;;;;;;;7.13;6.38;;;22.80;99.90;;;;;;5081702;28;20032;-70
2022/08/27 07:11:40;;;;;;;7.05;6.35;;;22.80;99.90;;;;;;5085852;28;20082;-70
2022/08/27 07:14:07;;;;;;;10.77;7.55;;;22.80;99.90;;;;;;5086269;28;20063;-73
2022/08/27 07:16:35;;;;;;;10.85;7.40;;;22.80;99.90;;;;;;5085826;28;20047;-69
2022/08/27 07:19:04;;;;;;;14.60;7.47;;;22.80;99.90;;;;;;5087243;28;20446;-71
2022/08/27 07:21:33;;;;;;;8.35;6.28;;;22.80;99.90;;;;;;5086940;28;20716;-71
2022/08/27 07:24:03;;;;;;;12.18;7.50;;;22.80;99.90;;;;;;5063456;28;20390;-71
2022/08/27 07:26:33;;;;;;;;;;;22.80;99.90;;;;;;5084711;28;20074;-70
2022/08/27 07:29:00;;;;;;;11.73;7.10;;;22.90;99.90;;;;;;5087398;28;19930;-70
2022/08/27 07:31:27;;;;;;;8.77;6.72;;;23.00;99.90;;;;;;5066644;28;20315;-69
2022/08/27 07:33:54;;;;;;;8.27;6.90;;;23.20;99.90;;;;;;5087712;28;20276;-71
2022/08/27 07:36:22;;;;;;;8.60;7.43;;;23.30;99.90;;;;;;5085184;28;20064;-70
2022/08/27 07:38:51;;;;;;;13.65;10.32;;;23.40;99.90;;;;;;5083794;28;20040;-69
2022/08/27 07:41:28;;;;;;;9.88;7.00;;;23.50;99.90;;;;;;5080294;28;20051;-72
2022/08/27 07:46:44;;;;;;;8.32;6.65;;;23.80;99.90;;;;;;5074979;28;19970;-71
2022/08/27 07:49:15;;;;;;;8.82;6.88;;;23.90;99.90;;;;;;5084662;28;20040;-70
2022/08/27 07:51:42;;;;;;;8.32;6.47;;;24.00;99.90;;;;;;5086720;28;20745;-72
2022/08/27 07:54:09;;;;;;;8.30;7.60;;;24.20;99.90;;;;;;5084451;28;20101;-71
2022/08/27 07:56:36;;;;;;;9.35;7.55;;;24.30;99.90;;;;;;5084152;28;20540;-73
2022/08/27 07:59:03;;;;;;;7.20;6.55;;;24.40;99.90;;;;;;5086694;28;20047;-71
2022/08/27 08:01:30;;;;;;;8.30;5.82;;;24.60;99.90;;;;;;5086692;28;20446;-69
2022/08/27 08:03:58;;;;;;;7.65;6.25;;;24.80;99.90;;;;;;5087285;28;20046;-70
2022/08/27 08:06:25;;;;;;;8.15;6.35;;;24.90;99.90;;;;;;5085306;28;20051;-70
2022/08/27 08:08:52;;;;;;;7.22;6.10;;;25.00;99.90;;;;;;5086223;28;20165;-72
2022/08/27 08:11:19;;;;;;;6.13;5.63;;;25.20;99.90;;;;;;5086664;28;20032;-73
2022/08/27 08:13:46;;;;;;;11.90;7.50;;;25.30;99.90;;;;;;5080938;28;20040;-71
2022/08/27 08:16:14;;;;;;;6.20;5.60;;;25.40;99.90;;;;;;5079705;28;20055;-70
2022/08/27 08:18:41;;;;;;;13.32;6.60;;;25.50;99.90;;;;;;5088931;28;20048;-70
2022/08/27 08:21:11;;;;;;;6.28;5.50;;;25.70;99.90;;;;;;5089131;28;20459;-70
2022/08/27 08:23:38;;;;;;;;;;;25.80;99.90;;;;;;5079810;28;20052;-70
2022/08/27 08:26:07;;;;;;;5.40;4.93;;;25.90;99.90;;;;;;5084513;28;20253;-70
2022/08/27 08:28:34;;;;;;;7.15;5.55;;;26.10;99.90;;;;;;5083843;28;20059;-70
2022/08/27 08:31:02;;;;;;;6.90;5.15;;;26.10;99.90;;;;;;5086162;28;20032;-71
2022/08/27 08:33:30;;;;;;;9.88;5.57;;;26.30;99.90;;;;;;5086088;28;20105;-71
2022/08/27 08:36:13;;;;;;;5.30;4.82;;;26.40;99.90;;;;;;5084955;28;20058;-72
2022/08/27 08:38:41;;;;;;;6.30;4.15;;;26.50;99.90;;;;;;5083860;28;20036;-70
2022/08/27 08:41:26;;;;;;;9.63;6.10;;;26.60;99.90;;;;;;5085456;28;20047;-72
2022/08/27 08:43:58;;;;;;;9.30;5.30;;;26.70;99.90;;;;;;5086160;28;20079;-72
2022/08/27 08:46:51;;;;;;;7.00;4.10;;;26.80;99.90;;;;;;5082060;28;20043;-72
2022/08/27 08:49:31;;;;;;;6.05;5.55;;;27.00;99.90;;;;;;5085156;28;20495;-75
2022/08/27 08:52:28;;;;;;;7.10;3.90;;;27.20;99.90;;;;;;5078697;28;20370;-70
2022/08/27 08:55:07;;;;;;;10.75;5.25;;;27.30;99.90;;;;;;5085658;28;20469;-70
2022/08/27 08:58:07;;;;;;;7.40;4.65;;;27.40;99.90;;;;;;5084876;28;20048;-72
2022/08/27 09:00:36;;;;;;;5.20;3.97;;;27.50;99.90;;;;;;5049825;28;20401;-70
2022/08/27 09:03:03;;;;;;;25.75;4.90;;;27.60;99.90;;;;;;5064529;28;20504;-72
2022/08/27 09:05:30;;;;;;;5.25;3.97;;;27.80;99.90;;;;;;5064834;28;20049;-72
2022/08/27 09:08:20;;;;;;;14.80;4.97;;;27.90;99.90;;;;;;5064992;28;20039;-70
2022/08/27 09:11:25;;;;;;;8.38;4.70;;;27.90;99.90;;;;;;5083370;28;20039;-71
2022/08/27 09:14:00;;;;;;;6.68;4.10;;;28.00;99.90;;;;;;5081236;28;20048;-71
2022/08/27 09:16:28;;;;;;;4.95;3.50;;;28.10;99.90;;;;;;5078892;28;20055;-71
2022/08/27 09:18:55;;;;;;;5.05;4.00;;;28.10;99.90;;;;;;5083576;28;20040;-71
2022/08/27 09:21:28;;;;;;;4.95;4.32;;;28.20;99.90;;;;;;5084311;28;20135;-70
2022/08/27 09:24:03;;;;;;;4.28;3.78;;;28.20;99.90;;;;;;5084321;28;20465;-71
2022/08/27 09:26:34;;;;;;;8.15;3.92;;;28.10;99.90;;;;;;5079212;28;20097;-70
2022/08/27 09:29:16;;;;;;;4.07;3.35;;;28.10;99.90;;;;;;5084781;28;20040;-73
2022/08/27 09:31:58;;;;;;;8.43;3.53;;;28.10;99.90;;;;;;5084010;28;20055;-70
2022/08/27 09:34:33;;;;;;;4.22;3.83;;;28.10;99.90;;;;;;5080893;28;20383;-71
2022/08/27 09:37:23;;;;;;;5.07;2.92;;;28.10;99.90;;;;;;5083523;27;20060;-72
2022/08/27 09:40:18;;;;;;;6.38;2.70;;;28.10;99.90;;;;;;5074287;28;20508;-70
2022/08/27 09:43:05;;;;;;;3.22;2.85;;;28.10;99.90;;;;;;5083075;28;20413;-70
2022/08/27 09:45:33;;;;;;;3.10;2.70;;;28.20;99.80;;;;;;5084263;28;20066;-70
2022/08/27 09:48:13;;;;;;;5.57;3.28;;;28.20;98.90;;;;;;5079885;28;20054;-72
2022/08/27 09:50:48;;;;;;;3.50;2.92;;;28.20;99.40;;;;;;5084594;28;20091;-71
2022/08/27 09:53:25;;;;;;;5.90;3.90;;;28.30;99.30;;;;;;5083813;28;20490;-71
2022/08/27 09:55:58;;;;;;;5.45;3.28;;;28.30;99.90;;;;;;5083603;28;20055;-70
2022/08/27 09:58:29;;;;;;;7.72;3.65;;;28.30;99.20;;;;;;5082379;28;20073;-71
2022/08/27 10:01:04;;;;;;;;;;;28.40;99.20;;;;;;5078827;28;20122;-73
2022/08/27 10:03:31;;;;;;;6.25;3.33;;;28.40;99.70;;;;;;5084603;28;19923;-70
2022/08/27 10:05:59;;;;;;;8.15;4.28;;;28.50;98.70;;;;;;5078848;28;20036;-71
2022/08/27 10:08:44;;;;;;;10.38;3.35;;;28.60;98.40;;;;;;5083612;28;20122;-73
2022/08/27 10:11:47;;;;;;;9.73;5.03;;;28.60;98.70;;;;;;5083457;28;20059;-72
2022/08/27 10:14:29;;;;;;;10.80;3.63;;;28.70;98.60;;;;;;5065436;28;20121;-71
2022/08/27 10:17:07;;;;;;;8.20;3.10;;;28.80;97.70;;;;;;5082606;28;20458;-71
2022/08/27 10:19:53;;;;;;;9.38;3.35;;;28.80;97.60;;;;;;5084055;28;20043;-70
2022/08/27 10:22:42;;;;;;;7.38;3.20;;;28.90;97.90;;;;;;5079919;28;20450;-69
2022/08/27 10:25:18;;;;;;;5.35;3.05;;;29.00;98.10;;;;;;5089400;27;20426;-70
2022/08/27 10:27:45;;;;;;;9.90;4.22;;;29.00;97.50;;;;;;5084267;28;20044;-72
2022/08/27 10:30:19;;;;;;;7.68;4.93;;;29.00;99.90;;;;;;5081121;28;20048;-75
2022/08/27 10:33:30;;;;;;;7.38;5.03;;;28.70;99.90;;;;;;5078721;28;20106;-71
2022/08/27 10:36:39;;;;;;;8.52;5.40;;;28.30;99.90;;;;;;5073554;28;20048;-72
2022/08/27 10:39:31;;;;;;;6.47;5.65;;;28.20;99.90;;;;;;5082628;28;20059;-70
2022/08/27 10:42:23;;;;;;;5.82;5.32;;;27.80;99.90;;;;;;5075995;28;20040;-70
2022/08/27 10:45:03;;;;;;;6.32;4.55;;;27.40;99.90;;;;;;5082083;28;20413;-71
2022/08/27 10:47:39;;;;;;;6.72;5.90;;;27.40;99.90;;;;;;5082457;28;20083;-70
2022/08/27 10:50:16;;;;;;;6.60;5.90;;;27.30;99.90;;;;;;5085724;28;20147;-69
2022/08/27 10:52:59;;;;;;;11.45;5.55;;;27.10;99.90;;;;;;5083180;28;20120;-69
2022/08/27 10:55:32;;;;;;;5.20;4.68;;;27.00;99.90;;;;;;5087002;28;20059;-76
2022/08/27 10:58:14;;;;;;;10.13;6.43;;;27.30;99.90;;;;;;5085293;28;20550;-69
2022/08/27 11:00:53;;;;;;;6.15;3.97;;;27.50;99.90;;;;;;5086052;28;20044;-71
2022/08/27 11:03:33;;;;;;;6.93;4.32;;;27.80;99.90;;;;;;5086481;28;20120;-70
2022/08/27 11:06:12;;;;;;;;;;;28.10;99.90;;;;;;5085203;28;20040;-74
2022/08/27 11:08:48;;;;;;;7.13;3.85;;;28.30;99.90;;;;;;5084064;28;19916;-69
2022/08/27 11:11:34;;;;;;;8.02;3.95;;;28.70;98.80;;;;;;5085840;28;20117;-75
2022/08/27 11:14:59;;;;;;;5.70;3.42;;;28.90;98.60;;;;;;5084795;28;20051;-76
2022/08/27 11:18:01;;;;;;;10.50;5.60;;;29.20;97.70;;;;;;5023950;28;20045;-69
2022/08/27 11:20:35;;;;;;;7.00;3.80;;;29.40;96.20;;;;;;5084441;28;20042;-71
2022/08/27 11:23:10;;;;;;;5.35;4.03;;;29.50;96.20;;;;;;5086228;28;20056;-72
2022/08/27 11:25:49;;;;;;;4.68;4.00;;;29.70;98.80;;;;;;5083119;28;20174;-70
2022/08/27 11:28:20;;;;;;;11.40;6.97;;;29.60;96.40;;;;;;5085036;28;20048;-69
2022/08/27 11:31:10;;;;;;;7.78;5.93;;;29.40;99.90;;;;;;5086101;28;20124;-69
2022/08/27 11:34:25;;;;;;;7.65;5.20;;;28.70;99.90;;;;;;5080273;28;20137;-69
2022/08/27 11:36:52;;;;;;;7.00;5.18;;;28.10;99.90;;;;;;5058638;28;20037;-73
2022/08/27 11:39:45;;;;;;;12.57;6.68;;;27.60;99.90;;;;;;5086514;28;20040;-70
2022/08/27 11:42:39;;;;;;;6.85;5.18;;;27.20;99.90;;;;;;5078170;28;20052;-69
2022/08/27 11:45:29;;;;;;;8.32;5.82;;;27.10;99.90;;;;;;5064574;28;20153;-69
2022/08/27 11:47:59;;;;;;;7.50;5.03;;;27.00;99.90;;;;;;5086054;28;20047;-72
2022/08/27 11:50:29;;;;;;;8.68;5.68;;;26.70;99.90;;;;;;5083108;28;20039;-69
2022/08/27 11:53:04;;;;;;;7.60;6.50;;;26.50;99.90;;;;;;5085724;28;20040;-70
2022/08/27 11:55:37;;;;;;;9.05;6.00;;;26.30;99.90;;;;;;5085825;28;20044;-74
2022/08/27 11:58:27;;;;;;;11.07;5.63;;;26.10;99.90;;;;;;5086110;28;20058;-71
2022/08/27 12:00:56;;;;;;;6.10;5.32;;;26.10;99.90;;;;;;5081422;28;20540;-70
2022/08/27 12:03:32;;;;;;;7.00;5.55;;;26.20;99.90;;;;;;5083451;28;20063;-70
2022/08/27 12:06:04;;;;;;;8.32;5.63;;;26.30;99.90;;;;;;5083752;28;20586;-70
2022/08/27 12:08:33;;;;;;;;;;;26.30;99.90;;;;;;5085446;28;20441;-69
2022/08/27 12:11:03;;;;;;;7.13;5.90;;;26.40;99.90;;;;;;5086294;28;19920;-71
2022/08/27 12:13:45;;;;;;;9.43;6.13;;;26.60;99.90;;;;;;5082511;28;20094;-69
2022/08/27 12:16:24;;;;;;;7.10;4.80;;;26.70;99.90;;;;;;5082276;28;20047;-69
2022/08/27 12:19:05;;;;;;;9.73;6.18;;;26.70;99.90;;;;;;5085181;28;20362;-70
2022/08/27 12:22:06;;;;;;;6.38;5.78;;;26.70;99.90;;;;;;5084941;28;20040;-72
2022/08/27 12:24:50;;;;;;;6.13;5.55;;;26.70;99.90;;;;;;5067276;28;20040;-70
2022/08/27 12:27:24;;;;;;;11.73;5.55;;;26.40;99.90;;;;;;5082241;28;20046;-72
2022/08/27 12:30:14;;;;;;;6.75;6.15;;;26.40;99.90;;;;;;5081600;28;20214;-69
2022/08/27 12:32:43;;;;;;;6.72;5.28;;;26.40;99.90;;;;;;5081642;28;20062;-71
2022/08/27 12:35:36;;;;;;;10.30;6.55;;;26.30;99.90;;;;;;5085305;28;20044;-73
2022/08/27 12:38:12;;;;;;;6.22;5.43;;;26.30;99.90;;;;;;5082891;28;20123;-70
2022/08/27 12:40:50;;;;;;;5.28;4.78;;;26.20;99.90;;;;;;5085050;28;20036;-71
2022/08/27 12:43:19;;;;;;;8.02;6.32;;;26.00;99.90;;;;;;5062342;28;20037;-75
2022/08/27 12:45:54;;;;;;;6.03;5.53;;;26.10;99.90;;;;;;5083731;28;20490;-69
2022/08/27 12:48:25;;;;;;;5.68;4.70;;;26.10;99.90;;;;;;5083626;28;20039;-69
2022/08/27 12:50:55;;;;;;;6.10;5.32;;;26.00;99.90;;;;;;5082033;28;20043;-70
2022/08/27 12:53:28;;;;;;;10.13;5.80;;;25.80;99.90;;;;;;5078509;28;20126;-69
2022/08/27 12:56:09;;;;;;;5.78;5.18;;;25.60;99.90;;;;;;5084703;28;20130;-71
2022/08/27 12:59:14;;;;;;;7.25;6.70;;;25.90;99.90;;;;;;5079786;28;20373;-72
2022/08/27 13:01:54;;;;;;;8.35;5.82;;;25.90;99.90;;;;;;5065430;28;20039;-69
2022/08/27 13:04:24;;;;;;;7.05;6.20;;;25.80;99.90;;;;;;5082569;28;20369;-69
2022/08/27 13:06:52;;;;;;;10.05;6.50;;;26.00;99.90;;;;;;5083923;28;20140;-72
2022/08/27 13:09:32;;;;;;;7.15;5.25;;;26.10;99.90;;;;;;5084443;28;20056;-71
2022/08/27 13:12:02;;;;;;;9.95;6.20;;;26.20;99.90;;;;;;5082988;28;20055;-74
2022/08/27 13:14:37;;;;;;;9.13;5.85;;;26.10;99.90;;;;;;5084983;28;20036;-69
2022/08/27 13:17:17;;;;;;;6.05;5.40;;;26.30;99.90;;;;;;5063205;28;20036;-69